sensor_id;sensor_type;location;lat;lon;timestamp;P1;durP1;ratioP1;P2;durP2;ratioP2
12925;SDS011;6529;50.566;9.774;2023-03-20T00:00:51;4.23;;;3.70;;
12925;SDS011;6529;50.566;9.774;2023-03-20T00:03:17;4.47;;;4.07;;
12925;SDS011;6529;50.566;9.774;2023-03-20T00:05:42;4.17;;;3.70;;
12925;SDS011;6529;50.566;9.774;2023-03-20T00:08:08;5.70;;;4.20;;
12925;SDS011;6529;50.566;9.774;2023-03-20T00:10:35;4.30;;;3.77;;
12925;SDS011;6529;50.566;9.774;2023-03-20T00:13:04;6.40;;;4.30;;
12925;SDS011;6529;50.566;9.774;2023-03-20T00:15:35;4.83;;;3.50;;
12925;SDS011;6529;50.566;9.774;2023-03-20T00:18:02;5.67;;;3.13;;
12925;SDS011;6529;50.566;9.774;2023-03-20T00:20:35;4.67;;;4.13;;
12925;SDS011;6529;50.566;9.774;2023-03-20T00:23:00;5.43;;;4.60;;
12925;SDS011;6529;50.566;9.774;2023-03-20T00:25:27;6.83;;;4.77;;
12925;SDS011;6529;50.566;9.774;2023-03-20T00:27:53;6.03;;;4.60;;
12925;SDS011;6529;50.566;9.774;2023-03-20T00:32:48;5.03;;;4.53;;
12925;SDS011;6529;50.566;9.774;2023-03-20T00:35:19;5.50;;;4.20;;
12925;SDS011;6529;50.566;9.774;2023-03-20T00:37:46;6.47;;;4.97;;
12925;SDS011;6529;50.566;9.774;2023-03-20T00:40:12;5.13;;;4.67;;
12925;SDS011;6529;50.566;9.774;2023-03-20T00:42:38;6.77;;;4.90;;
12925;SDS011;6529;50.566;9.774;2023-03-20T00:45:04;5.77;;;4.37;;
12925;SDS011;6529;50.566;9.774;2023-03-20T00:47:30;4.57;;;3.77;;
12925;SDS011;6529;50.566;9.774;2023-03-20T00:50:01;4.73;;;4.30;;
12925;SDS011;6529;50.566;9.774;2023-03-20T00:52:26;4.53;;;4.10;;
12925;SDS011;6529;50.566;9.774;2023-03-20T00:54:52;5.40;;;4.23;;
12925;SDS011;6529;50.566;9.774;2023-03-20T01:02:22;4.87;;;4.30;;
12925;SDS011;6529;50.566;9.774;2023-03-20T01:04:50;4.87;;;4.00;;
12925;SDS011;6529;50.566;9.774;2023-03-20T01:07:16;4.50;;;3.90;;
12925;SDS011;6529;50.566;9.774;2023-03-20T01:09:42;4.67;;;4.10;;
12925;SDS011;6529;50.566;9.774;2023-03-20T01:12:09;6.80;;;4.20;;
12925;SDS011;6529;50.566;9.774;2023-03-20T01:14:36;4.30;;;3.90;;
12925;SDS011;6529;50.566;9.774;2023-03-20T01:17:01;4.90;;;4.40;;
12925;SDS011;6529;50.566;9.774;2023-03-20T01:19:27;5.57;;;3.87;;
12925;SDS011;6529;50.566;9.774;2023-03-20T01:21:52;4.47;;;3.70;;
12925;SDS011;6529;50.566;9.774;2023-03-20T01:24:18;5.63;;;4.20;;
12925;SDS011;6529;50.566;9.774;2023-03-20T01:26:44;4.87;;;4.37;;
12925;SDS011;6529;50.566;9.774;2023-03-20T01:29:17;5.20;;;4.17;;
12925;SDS011;6529;50.566;9.774;2023-03-20T01:31:48;5.70;;;4.43;;
12925;SDS011;6529;50.566;9.774;2023-03-20T01:34:15;5.03;;;4.37;;
12925;SDS011;6529;50.566;9.774;2023-03-20T01:36:43;8.03;;;4.93;;
12925;SDS011;6529;50.566;9.774;2023-03-20T01:39:13;4.77;;;4.37;;
12925;SDS011;6529;50.566;9.774;2023-03-20T01:41:39;5.17;;;4.23;;
12925;SDS011;6529;50.566;9.774;2023-03-20T01:44:38;4.93;;;4.33;;
12925;SDS011;6529;50.566;9.774;2023-03-20T01:46:58;5.10;;;4.60;;
12925;SDS011;6529;50.566;9.774;2023-03-20T01:51:52;5.60;;;4.97;;
12925;SDS011;6529;50.566;9.774;2023-03-20T01:56:48;6.07;;;5.43;;
12925;SDS011;6529;50.566;9.774;2023-03-20T01:59:23;6.10;;;5.40;;
12925;SDS011;6529;50.566;9.774;2023-03-20T02:01:53;6.43;;;4.80;;
12925;SDS011;6529;50.566;9.774;2023-03-20T02:04:19;5.73;;;5.20;;
12925;SDS011;6529;50.566;9.774;2023-03-20T02:06:51;6.93;;;5.43;;
12925;SDS011;6529;50.566;9.774;2023-03-20T02:09:16;6.13;;;5.53;;
12925;SDS011;6529;50.566;9.774;2023-03-20T02:11:43;6.83;;;5.90;;
12925;SDS011;6529;50.566;9.774;2023-03-20T02:14:10;7.67;;;6.00;;
12925;SDS011;6529;50.566;9.774;2023-03-20T02:16:37;6.87;;;5.50;;
12925;SDS011;6529;50.566;9.774;2023-03-20T02:19:02;8.50;;;6.53;;
12925;SDS011;6529;50.566;9.774;2023-03-20T02:28:06;9.73;;;7.50;;
12925;SDS011;6529;50.566;9.774;2023-03-20T02:31:13;8.73;;;7.50;;
12925;SDS011;6529;50.566;9.774;2023-03-20T02:42:11;8.87;;;7.50;;
12925;SDS011;6529;50.566;9.774;2023-03-20T02:44:59;8.67;;;7.77;;
12925;SDS011;6529;50.566;9.774;2023-03-20T02:50:41;9.27;;;7.70;;
12925;SDS011;6529;50.566;9.774;2023-03-20T02:56:54;10.47;;;7.93;;
12925;SDS011;6529;50.566;9.774;2023-03-20T02:59:18;8.37;;;7.57;;
12925;SDS011;6529;50.566;9.774;2023-03-20T03:04:34;10.20;;;8.47;;
12925;SDS011;6529;50.566;9.774;2023-03-20T03:07:02;10.77;;;9.07;;
12925;SDS011;6529;50.566;9.774;2023-03-20T03:09:39;10.87;;;8.57;;
12925;SDS011;6529;50.566;9.774;2023-03-20T03:12:19;11.17;;;9.00;;
12925;SDS011;6529;50.566;9.774;2023-03-20T03:14:48;10.87;;;8.67;;
12925;SDS011;6529;50.566;9.774;2023-03-20T03:17:19;9.67;;;8.43;;
12925;SDS011;6529;50.566;9.774;2023-03-20T03:19:48;10.30;;;8.17;;
12925;SDS011;6529;50.566;9.774;2023-03-20T03:22:17;12.70;;;9.43;;
12925;SDS011;6529;50.566;9.774;2023-03-20T03:24:48;12.27;;;8.83;;
12925;SDS011;6529;50.566;9.774;2023-03-20T03:27:17;11.73;;;9.13;;
12925;SDS011;6529;50.566;9.774;2023-03-20T03:29:57;12.70;;;10.00;;
12925;SDS011;6529;50.566;9.774;2023-03-20T03:32:32;11.97;;;9.70;;
12925;SDS011;6529;50.566;9.774;2023-03-20T03:35:00;11.50;;;9.37;;
12925;SDS011;6529;50.566;9.774;2023-03-20T03:40:17;14.87;;;10.53;;
12925;SDS011;6529;50.566;9.774;2023-03-20T03:42:50;13.97;;;10.10;;
12925;SDS011;6529;50.566;9.774;2023-03-20T03:45:31;16.17;;;10.90;;
12925;SDS011;6529;50.566;9.774;2023-03-20T03:48:02;16.20;;;10.97;;
12925;SDS011;6529;50.566;9.774;2023-03-20T03:50:42;15.23;;;11.43;;
12925;SDS011;6529;50.566;9.774;2023-03-20T03:53:12;16.37;;;12.27;;
12925;SDS011;6529;50.566;9.774;2023-03-20T03:55:43;16.80;;;12.40;;
12925;SDS011;6529;50.566;9.774;2023-03-20T03:58:15;16.60;;;12.10;;
12925;SDS011;6529;50.566;9.774;2023-03-20T04:00:46;15.63;;;11.47;;
12925;SDS011;6529;50.566;9.774;2023-03-20T04:03:15;18.43;;;12.10;;
12925;SDS011;6529;50.566;9.774;2023-03-20T04:05:42;17.70;;;12.80;;
12925;SDS011;6529;50.566;9.774;2023-03-20T04:08:10;20.30;;;13.43;;
12925;SDS011;6529;50.566;9.774;2023-03-20T04:10:36;17.40;;;12.10;;
12925;SDS011;6529;50.566;9.774;2023-03-20T04:13:01;17.77;;;12.80;;
12925;SDS011;6529;50.566;9.774;2023-03-20T04:15:27;20.43;;;12.60;;
12925;SDS011;6529;50.566;9.774;2023-03-20T04:17:53;17.50;;;12.77;;
12925;SDS011;6529;50.566;9.774;2023-03-20T04:20:18;18.37;;;13.13;;
12925;SDS011;6529;50.566;9.774;2023-03-20T04:22:44;17.80;;;12.57;;
12925;SDS011;6529;50.566;9.774;2023-03-20T04:25:15;20.33;;;13.37;;
12925;SDS011;6529;50.566;9.774;2023-03-20T04:27:45;23.20;;;13.97;;
12925;SDS011;6529;50.566;9.774;2023-03-20T04:30:11;19.40;;;12.77;;
12925;SDS011;6529;50.566;9.774;2023-03-20T04:32:38;19.30;;;13.37;;
12925;SDS011;6529;50.566;9.774;2023-03-20T04:35:03;18.87;;;12.70;;
12925;SDS011;6529;50.566;9.774;2023-03-20T04:37:30;19.10;;;13.17;;
12925;SDS011;6529;50.566;9.774;2023-03-20T04:39:55;17.37;;;12.33;;
12925;SDS011;6529;50.566;9.774;2023-03-20T04:42:21;17.70;;;12.37;;
12925;SDS011;6529;50.566;9.774;2023-03-20T04:44:46;19.43;;;12.80;;
12925;SDS011;6529;50.566;9.774;2023-03-20T04:47:12;18.17;;;12.80;;
12925;SDS011;6529;50.566;9.774;2023-03-20T04:49:37;16.43;;;12.07;;
12925;SDS011;6529;50.566;9.774;2023-03-20T04:52:03;17.27;;;12.37;;
12925;SDS011;6529;50.566;9.774;2023-03-20T04:54:29;19.27;;;12.90;;
12925;SDS011;6529;50.566;9.774;2023-03-20T04:56:54;19.10;;;12.83;;
12925;SDS011;6529;50.566;9.774;2023-03-20T04:59:20;23.53;;;12.93;;
12925;SDS011;6529;50.566;9.774;2023-03-20T05:01:46;20.33;;;12.60;;
12925;SDS011;6529;50.566;9.774;2023-03-20T05:04:11;18.50;;;12.47;;
12925;SDS011;6529;50.566;9.774;2023-03-20T05:06:37;18.17;;;12.33;;
12925;SDS011;6529;50.566;9.774;2023-03-20T05:09:02;18.57;;;12.67;;
12925;SDS011;6529;50.566;9.774;2023-03-20T05:11:28;18.23;;;11.77;;
12925;SDS011;6529;50.566;9.774;2023-03-20T05:13:54;21.83;;;12.67;;
12925;SDS011;6529;50.566;9.774;2023-03-20T05:16:20;19.13;;;12.80;;
12925;SDS011;6529;50.566;9.774;2023-03-20T05:18:45;17.07;;;12.47;;
12925;SDS011;6529;50.566;9.774;2023-03-20T05:21:11;20.53;;;12.80;;
12925;SDS011;6529;50.566;9.774;2023-03-20T05:23:36;18.93;;;12.83;;
12925;SDS011;6529;50.566;9.774;2023-03-20T05:26:02;19.23;;;12.60;;
12925;SDS011;6529;50.566;9.774;2023-03-20T05:28:29;18.97;;;12.40;;
12925;SDS011;6529;50.566;9.774;2023-03-20T05:30:55;19.13;;;13.17;;
12925;SDS011;6529;50.566;9.774;2023-03-20T05:33:20;20.07;;;13.07;;
12925;SDS011;6529;50.566;9.774;2023-03-20T05:35:46;20.13;;;13.47;;
12925;SDS011;6529;50.566;9.774;2023-03-20T05:38:12;21.20;;;13.27;;
12925;SDS011;6529;50.566;9.774;2023-03-20T05:40:37;23.63;;;13.90;;
12925;SDS011;6529;50.566;9.774;2023-03-20T05:43:03;23.33;;;14.67;;
12925;SDS011;6529;50.566;9.774;2023-03-20T05:45:29;22.77;;;14.00;;
12925;SDS011;6529;50.566;9.774;2023-03-20T05:47:55;24.77;;;14.70;;
12925;SDS011;6529;50.566;9.774;2023-03-20T05:50:20;24.60;;;14.70;;
12925;SDS011;6529;50.566;9.774;2023-03-20T05:52:46;21.90;;;14.03;;
12925;SDS011;6529;50.566;9.774;2023-03-20T05:55:13;27.30;;;15.47;;
12925;SDS011;6529;50.566;9.774;2023-03-20T05:57:39;28.17;;;15.67;;
12925;SDS011;6529;50.566;9.774;2023-03-20T06:00:05;24.17;;;14.63;;
12925;SDS011;6529;50.566;9.774;2023-03-20T06:02:32;26.17;;;15.87;;
12925;SDS011;6529;50.566;9.774;2023-03-20T06:04:58;25.27;;;14.83;;
12925;SDS011;6529;50.566;9.774;2023-03-20T06:07:23;25.17;;;15.03;;
12925;SDS011;6529;50.566;9.774;2023-03-20T06:09:49;26.13;;;15.67;;
12925;SDS011;6529;50.566;9.774;2023-03-20T06:12:15;26.93;;;16.30;;
12925;SDS011;6529;50.566;9.774;2023-03-20T06:14:41;26.47;;;15.00;;
12925;SDS011;6529;50.566;9.774;2023-03-20T06:17:07;26.23;;;16.07;;
12925;SDS011;6529;50.566;9.774;2023-03-20T06:19:32;26.87;;;15.53;;
12925;SDS011;6529;50.566;9.774;2023-03-20T06:21:58;26.30;;;15.60;;
12925;SDS011;6529;50.566;9.774;2023-03-20T06:24:23;27.87;;;16.63;;
12925;SDS011;6529;50.566;9.774;2023-03-20T06:26:49;27.67;;;15.57;;
12925;SDS011;6529;50.566;9.774;2023-03-20T06:29:15;27.80;;;15.87;;
12925;SDS011;6529;50.566;9.774;2023-03-20T06:31:40;24.87;;;15.17;;
12925;SDS011;6529;50.566;9.774;2023-03-20T06:34:06;27.77;;;16.00;;
12925;SDS011;6529;50.566;9.774;2023-03-20T06:36:32;27.90;;;15.73;;
12925;SDS011;6529;50.566;9.774;2023-03-20T06:38:57;29.77;;;16.47;;
12925;SDS011;6529;50.566;9.774;2023-03-20T06:41:23;27.07;;;15.97;;
12925;SDS011;6529;50.566;9.774;2023-03-20T06:43:48;30.03;;;16.87;;
12925;SDS011;6529;50.566;9.774;2023-03-20T06:46:14;28.10;;;16.50;;
12925;SDS011;6529;50.566;9.774;2023-03-20T06:48:40;29.10;;;17.07;;
12925;SDS011;6529;50.566;9.774;2023-03-20T06:51:05;29.10;;;16.63;;
12925;SDS011;6529;50.566;9.774;2023-03-20T06:53:31;27.93;;;16.67;;
12925;SDS011;6529;50.566;9.774;2023-03-20T06:55:57;24.07;;;15.00;;
12925;SDS011;6529;50.566;9.774;2023-03-20T06:58:23;27.97;;;16.70;;
12925;SDS011;6529;50.566;9.774;2023-03-20T07:00:49;27.33;;;16.33;;
12925;SDS011;6529;50.566;9.774;2023-03-20T07:03:15;26.93;;;16.23;;
12925;SDS011;6529;50.566;9.774;2023-03-20T07:05:41;29.13;;;17.53;;
12925;SDS011;6529;50.566;9.774;2023-03-20T07:08:07;31.90;;;17.17;;
12925;SDS011;6529;50.566;9.774;2023-03-20T07:10:33;27.37;;;16.47;;
12925;SDS011;6529;50.566;9.774;2023-03-20T07:12:59;30.63;;;17.90;;
12925;SDS011;6529;50.566;9.774;2023-03-20T07:15:25;27.63;;;16.60;;
12925;SDS011;6529;50.566;9.774;2023-03-20T07:17:51;27.93;;;15.87;;
12925;SDS011;6529;50.566;9.774;2023-03-20T07:20:17;29.60;;;17.03;;
12925;SDS011;6529;50.566;9.774;2023-03-20T07:22:43;32.37;;;17.73;;
12925;SDS011;6529;50.566;9.774;2023-03-20T07:25:09;29.13;;;17.27;;
12925;SDS011;6529;50.566;9.774;2023-03-20T07:27:35;30.67;;;17.63;;
12925;SDS011;6529;50.566;9.774;2023-03-20T07:30:02;30.00;;;16.50;;
12925;SDS011;6529;50.566;9.774;2023-03-20T07:32:28;31.20;;;17.10;;
12925;SDS011;6529;50.566;9.774;2023-03-20T07:34:54;31.20;;;16.60;;
12925;SDS011;6529;50.566;9.774;2023-03-20T07:37:20;29.47;;;16.30;;
12925;SDS011;6529;50.566;9.774;2023-03-20T07:39:45;32.13;;;16.37;;
12925;SDS011;6529;50.566;9.774;2023-03-20T07:42:11;30.63;;;17.07;;
12925;SDS011;6529;50.566;9.774;2023-03-20T07:44:37;29.30;;;15.80;;
12925;SDS011;6529;50.566;9.774;2023-03-20T07:47:03;31.90;;;17.10;;
12925;SDS011;6529;50.566;9.774;2023-03-20T07:49:30;32.43;;;16.87;;
12925;SDS011;6529;50.566;9.774;2023-03-20T07:51:55;34.27;;;17.10;;
12925;SDS011;6529;50.566;9.774;2023-03-20T07:54:21;34.27;;;16.83;;
12925;SDS011;6529;50.566;9.774;2023-03-20T07:56:47;36.53;;;17.13;;
12925;SDS011;6529;50.566;9.774;2023-03-20T07:59:14;31.67;;;16.97;;
12925;SDS011;6529;50.566;9.774;2023-03-20T08:01:40;34.47;;;16.63;;
12925;SDS011;6529;50.566;9.774;2023-03-20T08:04:06;35.73;;;17.00;;
12925;SDS011;6529;50.566;9.774;2023-03-20T08:06:31;33.47;;;16.90;;
12925;SDS011;6529;50.566;9.774;2023-03-20T08:08:57;33.10;;;16.77;;
12925;SDS011;6529;50.566;9.774;2023-03-20T08:11:22;31.77;;;15.37;;
12925;SDS011;6529;50.566;9.774;2023-03-20T08:13:48;33.63;;;16.63;;
12925;SDS011;6529;50.566;9.774;2023-03-20T08:16:14;31.07;;;15.77;;
12925;SDS011;6529;50.566;9.774;2023-03-20T08:18:40;31.70;;;15.83;;
12925;SDS011;6529;50.566;9.774;2023-03-20T08:21:06;30.37;;;15.60;;
12925;SDS011;6529;50.566;9.774;2023-03-20T08:23:32;31.90;;;16.63;;
12925;SDS011;6529;50.566;9.774;2023-03-20T08:25:57;30.03;;;14.90;;
12925;SDS011;6529;50.566;9.774;2023-03-20T08:28:23;32.07;;;16.67;;
12925;SDS011;6529;50.566;9.774;2023-03-20T08:30:48;24.87;;;14.20;;
12925;SDS011;6529;50.566;9.774;2023-03-20T08:33:15;27.33;;;15.50;;
12925;SDS011;6529;50.566;9.774;2023-03-20T08:35:41;29.33;;;15.40;;
12925;SDS011;6529;50.566;9.774;2023-03-20T08:38:11;27.63;;;15.37;;
12925;SDS011;6529;50.566;9.774;2023-03-20T08:40:40;30.53;;;16.17;;
12925;SDS011;6529;50.566;9.774;2023-03-20T08:43:06;28.87;;;15.57;;
12925;SDS011;6529;50.566;9.774;2023-03-20T08:45:33;32.73;;;15.77;;
12925;SDS011;6529;50.566;9.774;2023-03-20T08:47:58;29.20;;;15.73;;
12925;SDS011;6529;50.566;9.774;2023-03-20T08:50:24;31.23;;;16.00;;
12925;SDS011;6529;50.566;9.774;2023-03-20T08:52:50;26.57;;;14.87;;
12925;SDS011;6529;50.566;9.774;2023-03-20T08:55:15;29.43;;;15.37;;
12925;SDS011;6529;50.566;9.774;2023-03-20T08:57:41;27.53;;;14.67;;
12925;SDS011;6529;50.566;9.774;2023-03-20T09:00:08;27.67;;;14.90;;
12925;SDS011;6529;50.566;9.774;2023-03-20T09:02:36;27.27;;;14.30;;
12925;SDS011;6529;50.566;9.774;2023-03-20T09:05:02;27.07;;;14.60;;
12925;SDS011;6529;50.566;9.774;2023-03-20T09:07:28;28.23;;;14.80;;
12925;SDS011;6529;50.566;9.774;2023-03-20T09:09:53;29.73;;;15.17;;
12925;SDS011;6529;50.566;9.774;2023-03-20T09:12:19;32.07;;;16.10;;
12925;SDS011;6529;50.566;9.774;2023-03-20T09:14:45;29.83;;;15.47;;
12925;SDS011;6529;50.566;9.774;2023-03-20T09:17:11;27.90;;;14.67;;
12925;SDS011;6529;50.566;9.774;2023-03-20T09:19:36;28.07;;;14.97;;
12925;SDS011;6529;50.566;9.774;2023-03-20T09:22:04;30.03;;;15.10;;
12925;SDS011;6529;50.566;9.774;2023-03-20T09:24:30;30.50;;;15.33;;
12925;SDS011;6529;50.566;9.774;2023-03-20T09:26:56;30.07;;;15.47;;
12925;SDS011;6529;50.566;9.774;2023-03-20T09:29:22;29.60;;;16.77;;
12925;SDS011;6529;50.566;9.774;2023-03-20T09:31:48;31.23;;;16.17;;
12925;SDS011;6529;50.566;9.774;2023-03-20T09:34:13;32.00;;;17.43;;
12925;SDS011;6529;50.566;9.774;2023-03-20T09:36:39;30.80;;;16.20;;
12925;SDS011;6529;50.566;9.774;2023-03-20T09:39:05;34.23;;;17.47;;
12925;SDS011;6529;50.566;9.774;2023-03-20T09:41:30;27.23;;;14.40;;
12925;SDS011;6529;50.566;9.774;2023-03-20T09:52:15;33.10;;;15.30;;
12925;SDS011;6529;50.566;9.774;2023-03-20T09:54:43;29.10;;;14.77;;
12925;SDS011;6529;50.566;9.774;2023-03-20T09:57:17;33.03;;;16.20;;
12925;SDS011;6529;50.566;9.774;2023-03-20T09:59:50;29.33;;;15.43;;
12925;SDS011;6529;50.566;9.774;2023-03-20T10:02:23;32.30;;;15.97;;
12925;SDS011;6529;50.566;9.774;2023-03-20T10:05:01;33.87;;;15.27;;
12925;SDS011;6529;50.566;9.774;2023-03-20T10:07:28;30.83;;;15.97;;
12925;SDS011;6529;50.566;9.774;2023-03-20T10:09:54;34.37;;;15.87;;
12925;SDS011;6529;50.566;9.774;2023-03-20T10:15:07;32.77;;;15.63;;
12925;SDS011;6529;50.566;9.774;2023-03-20T10:17:47;32.97;;;15.60;;
12925;SDS011;6529;50.566;9.774;2023-03-20T10:22:57;31.83;;;16.03;;
12925;SDS011;6529;50.566;9.774;2023-03-20T10:25:33;30.83;;;15.77;;
12925;SDS011;6529;50.566;9.774;2023-03-20T10:28:38;28.17;;;14.60;;
12925;SDS011;6529;50.566;9.774;2023-03-20T10:37:18;32.70;;;14.00;;
12925;SDS011;6529;50.566;9.774;2023-03-20T10:42:51;29.50;;;13.63;;
12925;SDS011;6529;50.566;9.774;2023-03-20T10:48:24;31.00;;;14.37;;
12925;SDS011;6529;50.566;9.774;2023-03-20T10:50:56;28.13;;;14.00;;
12925;SDS011;6529;50.566;9.774;2023-03-20T10:56:15;24.37;;;12.83;;
12925;SDS011;6529;50.566;9.774;2023-03-20T10:58:53;29.70;;;14.20;;
12925;SDS011;6529;50.566;9.774;2023-03-20T11:01:27;33.03;;;16.07;;
12925;SDS011;6529;50.566;9.774;2023-03-20T11:03:53;25.10;;;13.03;;
12925;SDS011;6529;50.566;9.774;2023-03-20T11:06:21;25.37;;;12.67;;
12925;SDS011;6529;50.566;9.774;2023-03-20T11:08:52;24.63;;;12.80;;
12925;SDS011;6529;50.566;9.774;2023-03-20T11:11:22;20.87;;;11.47;;
12925;SDS011;6529;50.566;9.774;2023-03-20T11:13:52;21.23;;;12.30;;
12925;SDS011;6529;50.566;9.774;2023-03-20T11:16:19;24.50;;;12.40;;
12925;SDS011;6529;50.566;9.774;2023-03-20T11:18:48;21.23;;;11.43;;
12925;SDS011;6529;50.566;9.774;2023-03-20T11:21:19;19.43;;;10.70;;
12925;SDS011;6529;50.566;9.774;2023-03-20T11:23:48;19.57;;;11.43;;
12925;SDS011;6529;50.566;9.774;2023-03-20T11:26:15;18.20;;;10.57;;
12925;SDS011;6529;50.566;9.774;2023-03-20T11:28:46;19.30;;;10.80;;
12925;SDS011;6529;50.566;9.774;2023-03-20T11:31:20;17.00;;;10.17;;
12925;SDS011;6529;50.566;9.774;2023-03-20T11:36:29;18.37;;;10.53;;
12925;SDS011;6529;50.566;9.774;2023-03-20T11:39:42;17.67;;;9.67;;
12925;SDS011;6529;50.566;9.774;2023-03-20T11:41:52;15.77;;;9.87;;
12925;SDS011;6529;50.566;9.774;2023-03-20T11:46:46;21.33;;;9.67;;
12925;SDS011;6529;50.566;9.774;2023-03-20T11:49:25;18.40;;;10.07;;
12925;SDS011;6529;50.566;9.774;2023-03-20T11:51:55;16.70;;;9.70;;
12925;SDS011;6529;50.566;9.774;2023-03-20T11:54:25;16.43;;;9.10;;
12925;SDS011;6529;50.566;9.774;2023-03-20T11:59:19;17.60;;;9.40;;
12925;SDS011;6529;50.566;9.774;2023-03-20T12:01:47;17.37;;;9.73;;
12925;SDS011;6529;50.566;9.774;2023-03-20T12:07:11;16.77;;;9.63;;
12925;SDS011;6529;50.566;9.774;2023-03-20T12:33:41;17.60;;;10.53;;
12925;SDS011;6529;50.566;9.774;2023-03-20T12:36:14;17.10;;;10.53;;
12925;SDS011;6529;50.566;9.774;2023-03-20T12:38:42;17.13;;;10.37;;
12925;SDS011;6529;50.566;9.774;2023-03-20T12:41:14;17.20;;;10.67;;
12925;SDS011;6529;50.566;9.774;2023-03-20T12:49:04;16.93;;;10.07;;
12925;SDS011;6529;50.566;9.774;2023-03-20T13:01:02;15.20;;;9.60;;
12925;SDS011;6529;50.566;9.774;2023-03-20T13:17:14;15.27;;;8.90;;
12925;SDS011;6529;50.566;9.774;2023-03-20T13:22:33;12.40;;;8.60;;
12925;SDS011;6529;50.566;9.774;2023-03-20T13:25:23;12.97;;;8.40;;
12925;SDS011;6529;50.566;9.774;2023-03-20T13:41:48;14.73;;;9.70;;
12925;SDS011;6529;50.566;9.774;2023-03-20T13:44:14;15.83;;;10.37;;
12925;SDS011;6529;50.566;9.774;2023-03-20T13:46:46;14.57;;;10.00;;
12925;SDS011;6529;50.566;9.774;2023-03-20T13:52:07;16.57;;;10.53;;
12925;SDS011;6529;50.566;9.774;2023-03-20T13:57:40;20.17;;;11.77;;
12925;SDS011;6529;50.566;9.774;2023-03-20T14:05:41;15.07;;;9.83;;
12925;SDS011;6529;50.566;9.774;2023-03-20T14:08:19;17.63;;;10.97;;
12925;SDS011;6529;50.566;9.774;2023-03-20T14:10:45;18.90;;;11.03;;
12925;SDS011;6529;50.566;9.774;2023-03-20T14:13:16;17.60;;;11.23;;
12925;SDS011;6529;50.566;9.774;2023-03-20T14:15:53;16.43;;;10.63;;
12925;SDS011;6529;50.566;9.774;2023-03-20T14:18:20;18.13;;;11.13;;
12925;SDS011;6529;50.566;9.774;2023-03-20T14:20:58;16.07;;;10.50;;
12925;SDS011;6529;50.566;9.774;2023-03-20T14:23:42;13.57;;;9.57;;
12925;SDS011;6529;50.566;9.774;2023-03-20T14:31:31;15.60;;;9.97;;
12925;SDS011;6529;50.566;9.774;2023-03-20T14:56:05;14.40;;;9.40;;
12925;SDS011;6529;50.566;9.774;2023-03-20T15:01:08;13.07;;;8.47;;
12925;SDS011;6529;50.566;9.774;2023-03-20T15:03:40;14.07;;;8.53;;
12925;SDS011;6529;50.566;9.774;2023-03-20T15:06:08;13.83;;;9.10;;
12925;SDS011;6529;50.566;9.774;2023-03-20T15:08:35;14.33;;;8.77;;
12925;SDS011;6529;50.566;9.774;2023-03-20T15:11:08;17.30;;;10.63;;
12925;SDS011;6529;50.566;9.774;2023-03-20T15:13:36;14.87;;;10.10;;
12925;SDS011;6529;50.566;9.774;2023-03-20T15:16:04;15.00;;;10.17;;
12925;SDS011;6529;50.566;9.774;2023-03-20T15:18:42;14.40;;;9.43;;
12925;SDS011;6529;50.566;9.774;2023-03-20T15:21:16;15.40;;;8.57;;
12925;SDS011;6529;50.566;9.774;2023-03-20T15:23:45;11.57;;;8.30;;
12925;SDS011;6529;50.566;9.774;2023-03-20T15:26:15;13.20;;;8.63;;
12925;SDS011;6529;50.566;9.774;2023-03-20T15:28:43;14.43;;;9.30;;
12925;SDS011;6529;50.566;9.774;2023-03-20T15:31:21;13.13;;;8.90;;
12925;SDS011;6529;50.566;9.774;2023-03-20T15:33:54;14.57;;;8.80;;
12925;SDS011;6529;50.566;9.774;2023-03-20T15:36:22;12.70;;;8.37;;
12925;SDS011;6529;50.566;9.774;2023-03-20T15:38:50;13.10;;;9.90;;
12925;SDS011;6529;50.566;9.774;2023-03-20T15:43:53;9.40;;;6.83;;
12925;SDS011;6529;50.566;9.774;2023-03-20T15:46:28;9.73;;;7.10;;
12925;SDS011;6529;50.566;9.774;2023-03-20T15:48:53;10.57;;;6.60;;
12925;SDS011;6529;50.566;9.774;2023-03-20T15:51:20;9.87;;;7.37;;
12925;SDS011;6529;50.566;9.774;2023-03-20T15:53:50;10.87;;;6.50;;
12925;SDS011;6529;50.566;9.774;2023-03-20T15:56:16;8.50;;;5.70;;
12925;SDS011;6529;50.566;9.774;2023-03-20T15:58:44;6.97;;;5.30;;
12925;SDS011;6529;50.566;9.774;2023-03-20T16:01:14;6.23;;;4.80;;
12925;SDS011;6529;50.566;9.774;2023-03-20T16:03:42;6.80;;;4.70;;
12925;SDS011;6529;50.566;9.774;2023-03-20T16:06:09;6.73;;;4.83;;
12925;SDS011;6529;50.566;9.774;2023-03-20T16:08:39;4.63;;;3.87;;
12925;SDS011;6529;50.566;9.774;2023-03-20T16:11:06;6.60;;;4.47;;
12925;SDS011;6529;50.566;9.774;2023-03-20T16:13:40;4.97;;;3.40;;
12925;SDS011;6529;50.566;9.774;2023-03-20T16:16:11;6.10;;;3.93;;
12925;SDS011;6529;50.566;9.774;2023-03-20T16:18:40;4.57;;;3.90;;
12925;SDS011;6529;50.566;9.774;2023-03-20T16:21:07;5.50;;;3.67;;
12925;SDS011;6529;50.566;9.774;2023-03-20T16:23:40;5.57;;;4.00;;
12925;SDS011;6529;50.566;9.774;2023-03-20T16:26:14;5.10;;;3.50;;
12925;SDS011;6529;50.566;9.774;2023-03-20T16:28:46;4.00;;;3.23;;
12925;SDS011;6529;50.566;9.774;2023-03-20T16:31:16;4.50;;;2.77;;
12925;SDS011;6529;50.566;9.774;2023-03-20T16:33:42;4.87;;;2.97;;
12925;SDS011;6529;50.566;9.774;2023-03-20T16:36:12;4.40;;;3.30;;
12925;SDS011;6529;50.566;9.774;2023-03-20T16:39:47;4.00;;;2.50;;
12925;SDS011;6529;50.566;9.774;2023-03-20T16:41:41;4.07;;;2.37;;
12925;SDS011;6529;50.566;9.774;2023-03-20T16:44:12;4.03;;;2.40;;
12925;SDS011;6529;50.566;9.774;2023-03-20T16:51:58;4.07;;;2.70;;
12925;SDS011;6529;50.566;9.774;2023-03-20T16:54:28;2.80;;;2.50;;
12925;SDS011;6529;50.566;9.774;2023-03-20T16:56:58;3.40;;;2.50;;
12925;SDS011;6529;50.566;9.774;2023-03-20T16:59:24;3.07;;;2.57;;
12925;SDS011;6529;50.566;9.774;2023-03-20T17:01:50;4.50;;;2.50;;
12925;SDS011;6529;50.566;9.774;2023-03-20T17:04:28;3.57;;;2.40;;
12925;SDS011;6529;50.566;9.774;2023-03-20T17:06:59;3.90;;;2.43;;
12925;SDS011;6529;50.566;9.774;2023-03-20T17:09:30;3.07;;;2.20;;
12925;SDS011;6529;50.566;9.774;2023-03-20T17:11:57;4.23;;;2.17;;
12925;SDS011;6529;50.566;9.774;2023-03-20T17:14:25;3.80;;;1.97;;
12925;SDS011;6529;50.566;9.774;2023-03-20T17:16:51;4.37;;;2.67;;
12925;SDS011;6529;50.566;9.774;2023-03-20T17:19:18;4.83;;;2.60;;
12925;SDS011;6529;50.566;9.774;2023-03-20T17:21:45;3.43;;;2.07;;
12925;SDS011;6529;50.566;9.774;2023-03-20T17:24:11;3.80;;;2.53;;
12925;SDS011;6529;50.566;9.774;2023-03-20T17:26:39;4.33;;;2.60;;
12925;SDS011;6529;50.566;9.774;2023-03-20T17:29:06;2.13;;;1.83;;
12925;SDS011;6529;50.566;9.774;2023-03-20T17:31:33;3.83;;;2.00;;
12925;SDS011;6529;50.566;9.774;2023-03-20T17:33:59;2.07;;;1.80;;
12925;SDS011;6529;50.566;9.774;2023-03-20T17:36:26;2.73;;;1.87;;
12925;SDS011;6529;50.566;9.774;2023-03-20T17:38:54;2.63;;;2.00;;
12925;SDS011;6529;50.566;9.774;2023-03-20T17:41:21;4.20;;;2.00;;
12925;SDS011;6529;50.566;9.774;2023-03-20T17:43:47;2.53;;;2.03;;
12925;SDS011;6529;50.566;9.774;2023-03-20T17:46:22;3.40;;;2.10;;
12925;SDS011;6529;50.566;9.774;2023-03-20T17:48:50;3.20;;;1.97;;
12925;SDS011;6529;50.566;9.774;2023-03-20T17:51:21;3.37;;;2.13;;
12925;SDS011;6529;50.566;9.774;2023-03-20T17:53:47;2.73;;;2.07;;
12925;SDS011;6529;50.566;9.774;2023-03-20T17:56:13;2.23;;;2.00;;
12925;SDS011;6529;50.566;9.774;2023-03-20T17:58:40;3.50;;;2.40;;
12925;SDS011;6529;50.566;9.774;2023-03-20T18:01:08;4.17;;;2.87;;
12925;SDS011;6529;50.566;9.774;2023-03-20T18:03:34;3.37;;;3.00;;
12925;SDS011;6529;50.566;9.774;2023-03-20T18:06:00;3.97;;;2.40;;
12925;SDS011;6529;50.566;9.774;2023-03-20T18:08:27;3.07;;;2.20;;
12925;SDS011;6529;50.566;9.774;2023-03-20T18:10:52;3.20;;;2.20;;